Wetterdaten: Woche 09.05.05 - 15.05.05 (KW19)
Datum Zeit Temperatur Luftfeuchte Luftdruck Niederschlag Windrichtung Wind
09.05.2005 00:00 6,9 C 63 % 1012 hPa 0,0 l/m W-SW 5,1 km/h (1 Bft)
09.05.2005 01:00 6,6 C 68 % 1012 hPa 0,0 l/m S-SO 1,5 km/h (1 Bft)
09.05.2005 02:00 6,4 C 70 % 1012 hPa 0,0 l/m S-SW 3,2 km/h (1 Bft)
09.05.2005 03:00 6,0 C 72 % 1011 hPa 0,0 l/m S-SW 4,1 km/h (1 Bft)
09.05.2005 04:00 5,6 C 74 % 1011 hPa 0,0 l/m SW 7,0 km/h (2 Bft)
09.05.2005 05:00 5,3 C 78 % 1011 hPa 0,0 l/m N-NW 10,2 km/h (2 Bft)
09.05.2005 06:00 4,5 C 81 % 1012 hPa 0,0 l/m N 0,0 km/h (0 Bft)
09.05.2005 07:00 5,0 C 81 % 1012 hPa 0,0 l/m S 3,2 km/h (1 Bft)
09.05.2005 08:00 6,2 C 77 % 1012 hPa 0,0 l/m NW 5,4 km/h (1 Bft)
09.05.2005 09:00 5,9 C 75 % 1013 hPa 0,0 l/m W 17,9 km/h (3 Bft)
09.05.2005 10:00 7,0 C 74 % 1012 hPa 0,0 l/m W 16,0 km/h (3 Bft)
09.05.2005 11:00 8,1 C 62 % 1013 hPa 0,0 l/m W-SW 12,7 km/h (3 Bft)
09.05.2005 12:00 8,6 C 60 % 1013 hPa 0,0 l/m W-SW 11,1 km/h (2 Bft)
09.05.2005 16:00 12,8 C 43 % 1013 hPa 0,0 l/m N 18,1 km/h (3 Bft)
09.05.2005 17:00 12,5 C 40 % 1014 hPa 0,0 l/m W 16,7 km/h (3 Bft)
09.05.2005 18:00 12,1 C 40 % 1014 hPa 0,0 l/m W 9,6 km/h (2 Bft)
09.05.2005 19:00 10,4 C 47 % 1014 hPa 0,0 l/m S 10,5 km/h (2 Bft)
09.05.2005 20:00 8,5 C 62 % 1014 hPa 0,0 l/m S 6,5 km/h (2 Bft)
09.05.2005 21:00 7,2 C 68 % 1014 hPa 0,0 l/m N 0,0 km/h (0 Bft)
09.05.2005 22:00 5,9 C 75 % 1015 hPa 0,0 l/m N 0,0 km/h (0 Bft)
09.05.2005 23:00 5,3 C 80 % 1015 hPa 0,0 l/m N 0,0 km/h (0 Bft)
10.05.2005 00:00 4,8 C 84 % 1015 hPa 0,0 l/m N 0,0 km/h (0 Bft)
10.05.2005 01:00 4,9 C 87 % 1014 hPa 0,0 l/m W-NW 0,5 km/h (0 Bft)
10.05.2005 02:00 4,6 C 88 % 1014 hPa 0,0 l/m W-NW 0,7 km/h (0 Bft)
10.05.2005 03:00 4,5 C 90 % 1014 hPa 0,0 l/m NW 8,6 km/h (2 Bft)
10.05.2005 04:00 4,2 C 90 % 1014 hPa 0,0 l/m NW 5,7 km/h (1 Bft)
10.05.2005 05:00 3,8 C 90 % 1014 hPa 0,0 l/m W 1,2 km/h (1 Bft)
10.05.2005 06:00 3,9 C 92 % 1014 hPa 0,0 l/m N-NW 6,7 km/h (2 Bft)
10.05.2005 07:00 4,6 C 89 % 1014 hPa 0,0 l/m NW 6,3 km/h (2 Bft)
10.05.2005 08:00 6,2 C 80 % 1014 hPa 0,0 l/m N-NW 7,9 km/h (2 Bft)
10.05.2005 09:00 8,4 C 64 % 1014 hPa 0,0 l/m NO 11,2 km/h (2 Bft)
10.05.2005 10:00 10,5 C 51 % 1014 hPa 0,0 l/m N 14,2 km/h (3 Bft)
10.05.2005 11:00 11,9 C 44 % 1014 hPa 0,0 l/m O-NO 14,2 km/h (3 Bft)
10.05.2005 12:00 13,4 C 39 % 1014 hPa 0,0 l/m N-NW 11,7 km/h (2 Bft)
10.05.2005 13:00 14,4 C 38 % 1014 hPa 0,0 l/m N 13,0 km/h (3 Bft)
10.05.2005 14:00 13,9 C 40 % 1014 hPa 0,0 l/m N-NW 17,2 km/h (3 Bft)
10.05.2005 15:00 13,3 C 40 % 1014 hPa 0,0 l/m N-NW 13,9 km/h (3 Bft)
10.05.2005 16:00 10,7 C 51 % 1015 hPa 0,0 l/m NW 11,9 km/h (2 Bft)
10.05.2005 17:00 9,7 C 56 % 1016 hPa 0,0 l/m NW 13,0 km/h (3 Bft)
10.05.2005 18:00 8,9 C 71 % 1016 hPa 0,0 l/m N-NO 12,3 km/h (3 Bft)
10.05.2005 19:00 8,7 C 70 % 1017 hPa 0,0 l/m NO 7,6 km/h (2 Bft)
10.05.2005 20:00 8,0 C 76 % 1017 hPa 0,0 l/m O 2,0 km/h (1 Bft)
10.05.2005 21:00 6,4 C 81 % 1018 hPa 0,0 l/m N 0,0 km/h (0 Bft)
10.05.2005 22:00 5,0 C 86 % 1018 hPa 0,0 l/m N 0,0 km/h (0 Bft)
10.05.2005 23:00 3,9 C 89 % 1018 hPa 0,0 l/m N 0,0 km/h (0 Bft)
11.05.2005 00:00 3,1 C 90 % 1019 hPa 0,0 l/m N 0,0 km/h (0 Bft)
11.05.2005 01:00 2,2 C 91 % 1019 hPa 0,0 l/m N 0,0 km/h (0 Bft)
11.05.2005 02:00 1,5 C 92 % 1019 hPa 0,0 l/m N 0,0 km/h (0 Bft)
11.05.2005 03:00 0,7 C 94 % 1019 hPa 0,0 l/m N 0,0 km/h (0 Bft)
11.05.2005 04:00 0,1 C 95 % 1019 hPa 0,0 l/m N 0,0 km/h (0 Bft)
11.05.2005 05:00 -0,1 C 97 % 1019 hPa 0,0 l/m N 0,0 km/h (0 Bft)
11.05.2005 06:00 -0,2 C 98 % 1020 hPa 0,0 l/m N 0,0 km/h (0 Bft)
11.05.2005 07:00 0,5 C 100 % 1020 hPa 0,0 l/m N 0,0 km/h (0 Bft)
11.05.2005 08:00 3,0 C 100 % 1020 hPa 0,0 l/m N-NO 0,3 km/h (0 Bft)
11.05.2005 09:00 7,2 C 75 % 1021 hPa 0,0 l/m N 8,2 km/h (2 Bft)
11.05.2005 10:00 9,5 C 48 % 1021 hPa 0,0 l/m N-NW 7,6 km/h (2 Bft)
11.05.2005 11:00 12,1 C 38 % 1021 hPa 0,0 l/m O-NO 14,5 km/h (3 Bft)
11.05.2005 12:00 13,7 C 34 % 1021 hPa 0,0 l/m N-NO 11,8 km/h (2 Bft)
11.05.2005 13:00 13,7 C 34 % 1021 hPa 0,0 l/m N-NO 9,3 km/h (2 Bft)
11.05.2005 14:00 13,9 C 34 % 1021 hPa 0,0 l/m O 8,8 km/h (2 Bft)
11.05.2005 15:00 13,8 C 34 % 1021 hPa 0,0 l/m N 10,1 km/h (2 Bft)
11.05.2005 16:00 14,7 C 33 % 1021 hPa 0,0 l/m N-NO 10,5 km/h (2 Bft)
11.05.2005 17:00 15,3 C 31 % 1020 hPa 0,0 l/m N-NO 12,6 km/h (3 Bft)
11.05.2005 18:00 14,6 C 32 % 1020 hPa 0,0 l/m O-NO 15,6 km/h (3 Bft)
11.05.2005 19:00 13,3 C 33 % 1020 hPa 0,0 l/m N-NO 11,7 km/h (2 Bft)
11.05.2005 20:00 11,3 C 40 % 1020 hPa 0,0 l/m N-NO 9,5 km/h (2 Bft)
11.05.2005 21:00 9,1 C 47 % 1021 hPa 0,0 l/m N 7,7 km/h (2 Bft)
11.05.2005 22:00 7,8 C 51 % 1021 hPa 0,0 l/m N-NO 9,2 km/h (2 Bft)
11.05.2005 23:00 6,4 C 56 % 1021 hPa 0,0 l/m N-NO 2,3 km/h (1 Bft)
12.05.2005 00:00 4,9 C 63 % 1021 hPa 0,0 l/m N-NW 2,9 km/h (1 Bft)
12.05.2005 01:00 4,1 C 68 % 1021 hPa 0,0 l/m N-NW 3,3 km/h (1 Bft)
12.05.2005 02:00 3,4 C 72 % 1020 hPa 0,0 l/m N 6,6 km/h (2 Bft)
12.05.2005 03:00 3,2 C 74 % 1020 hPa 0,0 l/m N-NO 7,6 km/h (2 Bft)
12.05.2005 04:00 3,1 C 73 % 1020 hPa 0,0 l/m N 8,8 km/h (2 Bft)
12.05.2005 05:00 3,0 C 71 % 1019 hPa 0,0 l/m N-NO 9,9 km/h (2 Bft)
12.05.2005 06:00 2,7 C 74 % 1019 hPa 0,0 l/m N 8,7 km/h (2 Bft)
12.05.2005 07:00 4,1 C 68 % 1019 hPa 0,0 l/m N-NO 11,6 km/h (2 Bft)
12.05.2005 08:00 6,9 C 58 % 1019 hPa 0,0 l/m N-NO 14,2 km/h (3 Bft)
12.05.2005 09:00 10,1 C 48 % 1019 hPa 0,0 l/m N-NO 20,9 km/h (4 Bft)
12.05.2005 10:00 12,7 C 41 % 1019 hPa 0,0 l/m N-NO 23,0 km/h (4 Bft)
12.05.2005 11:00 13,9 C 38 % 1019 hPa 0,0 l/m N-NO 24,4 km/h (4 Bft)
12.05.2005 12:00 15,0 C 37 % 1018 hPa 0,0 l/m N-NO 24,2 km/h (4 Bft)
12.05.2005 13:00 15,9 C 36 % 1018 hPa 0,0 l/m N 24,0 km/h (4 Bft)
12.05.2005 14:00 16,9 C 35 % 1018 hPa 0,0 l/m N-NO 23,8 km/h (4 Bft)
12.05.2005 15:00 17,1 C 33 % 1017 hPa 0,0 l/m N-NO 23,0 km/h (4 Bft)
12.05.2005 16:00 17,5 C 32 % 1017 hPa 0,0 l/m NO 23,8 km/h (4 Bft)
12.05.2005 17:00 17,3 C 31 % 1017 hPa 0,0 l/m O-NO 23,9 km/h (4 Bft)
12.05.2005 18:00 16,5 C 32 % 1017 hPa 0,0 l/m NO 23,0 km/h (4 Bft)
12.05.2005 19:00 15,1 C 35 % 1016 hPa 0,0 l/m O-NO 19,1 km/h (3 Bft)
12.05.2005 20:00 13,4 C 37 % 1017 hPa 0,0 l/m NO 15,4 km/h (3 Bft)
12.05.2005 21:00 11,8 C 41 % 1017 hPa 0,0 l/m N-NO 13,6 km/h (3 Bft)
12.05.2005 22:00 11,0 C 45 % 1017 hPa 0,0 l/m N-NO 11,3 km/h (2 Bft)
13.05.2005 17:00 19,9 C 39 % 1016 hPa 0,0 l/m S-SO 5,9 km/h (2 Bft)
13.05.2005 18:00 19,7 C 41 % 1015 hPa 0,0 l/m O-NO 10,6 km/h (2 Bft)
13.05.2005 19:00 19,1 C 44 % 1015 hPa 0,0 l/m O 11,4 km/h (2 Bft)
13.05.2005 20:00 17,1 C 52 % 1015 hPa 0,0 l/m O-NO 9,3 km/h (2 Bft)
13.05.2005 21:00 14,8 C 61 % 1015 hPa 0,0 l/m N 0,1 km/h (0 Bft)
13.05.2005 22:00 12,7 C 71 % 1015 hPa 0,0 l/m N 0,1 km/h (0 Bft)
13.05.2005 23:00 11,7 C 74 % 1015 hPa 0,0 l/m NW 3,1 km/h (1 Bft)
14.05.2005 00:00 10,9 C 78 % 1014 hPa 0,0 l/m W 1,5 km/h (1 Bft)
14.05.2005 01:00 9,9 C 81 % 1014 hPa 0,0 l/m N 0,0 km/h (0 Bft)
14.05.2005 02:00 9,1 C 85 % 1014 hPa 0,0 l/m N 0,0 km/h (0 Bft)
14.05.2005 03:00 8,5 C 87 % 1013 hPa 0,0 l/m N 0,0 km/h (0 Bft)
14.05.2005 04:00 8,0 C 89 % 1013 hPa 0,0 l/m N 0,0 km/h (0 Bft)
14.05.2005 05:00 7,7 C 91 % 1012 hPa 0,0 l/m N 0,0 km/h (0 Bft)
14.05.2005 06:00 8,3 C 94 % 1012 hPa 0,0 l/m NW 3,2 km/h (1 Bft)
14.05.2005 07:00 9,1 C 91 % 1012 hPa 0,0 l/m NW 10,2 km/h (2 Bft)
14.05.2005 08:00 10,5 C 86 % 1012 hPa 0,0 l/m NW 8,3 km/h (2 Bft)
14.05.2005 09:00 11,6 C 83 % 1012 hPa 0,0 l/m W-NW 8,2 km/h (2 Bft)
14.05.2005 10:00 14,3 C 72 % 1012 hPa 0,0 l/m N 8,1 km/h (2 Bft)
14.05.2005 11:00 16,4 C 62 % 1012 hPa 0,0 l/m N-NO 9,8 km/h (2 Bft)
14.05.2005 12:00 17,6 C 58 % 1012 hPa 0,0 l/m N 10,5 km/h (2 Bft)
14.05.2005 13:00 18,3 C 52 % 1012 hPa 0,0 l/m O-NO 10,9 km/h (2 Bft)
14.05.2005 14:00 18,0 C 54 % 1012 hPa 0,0 l/m S-SO 2,0 km/h (1 Bft)
14.05.2005 15:00 17,1 C 61 % 1012 hPa 0,0 l/m W 13,6 km/h (3 Bft)
14.05.2005 16:00 14,7 C 72 % 1013 hPa 0,0 l/m W-SW 18,4 km/h (3 Bft)
14.05.2005 17:00 14,9 C 69 % 1013 hPa 0,0 l/m W-SW 17,7 km/h (3 Bft)
14.05.2005 18:00 13,7 C 72 % 1013 hPa 0,0 l/m W-SW 21,6 km/h (4 Bft)
14.05.2005 19:00 13,2 C 77 % 1013 hPa 0,0 l/m S-SW 21,9 km/h (4 Bft)
14.05.2005 20:00 12,9 C 79 % 1014 hPa 0,0 l/m S-SW 20,5 km/h (4 Bft)
14.05.2005 21:00 12,3 C 84 % 1014 hPa 0,0 l/m S-SW 20,6 km/h (4 Bft)
14.05.2005 22:00 11,8 C 84 % 1015 hPa 0,0 l/m SW 18,5 km/h (3 Bft)
14.05.2005 23:00 11,5 C 82 % 1015 hPa 0,0 l/m SW 18,5 km/h (3 Bft)
15.05.2005 00:00 11,5 C 82 % 1016 hPa 0,0 l/m W-SW 16,8 km/h (3 Bft)
15.05.2005 01:00 11,2 C 82 % 1016 hPa 0,0 l/m W-SW 16,5 km/h (3 Bft)
15.05.2005 02:00 10,8 C 87 % 1016 hPa 0,0 l/m W-SW 15,9 km/h (3 Bft)
15.05.2005 03:00 10,3 C 93 % 1016 hPa 0,0 l/m SW 12,4 km/h (3 Bft)
15.05.2005 04:00 10,2 C 92 % 1016 hPa 0,0 l/m SW 11,6 km/h (2 Bft)
15.05.2005 05:00 10,2 C 89 % 1016 hPa 0,0 l/m W-SW 13,6 km/h (3 Bft)
15.05.2005 06:00 10,2 C 84 % 1016 hPa 0,0 l/m W-SW 12,6 km/h (3 Bft)
15.05.2005 07:00 10,4 C 86 % 1016 hPa 1,0 l/m SW 13,7 km/h (3 Bft)
15.05.2005 08:00 11,3 C 82 % 1016 hPa 0,0 l/m SW 14,5 km/h (3 Bft)
15.05.2005 09:00 12,3 C 76 % 1016 hPa 0,0 l/m S-SW 16,6 km/h (3 Bft)
15.05.2005 10:00 12,9 C 71 % 1016 hPa 0,0 l/m W-SW 17,8 km/h (3 Bft)
15.05.2005 11:00 14,5 C 60 % 1016 hPa 0,0 l/m W-SW 22,9 km/h (4 Bft)
15.05.2005 12:00 15,4 C 57 % 1015 hPa 0,0 l/m SW 19,8 km/h (3 Bft)
15.05.2005 13:00 15,1 C 55 % 1015 hPa 0,0 l/m W-SW 16,9 km/h (3 Bft)
15.05.2005 14:00 15,5 C 59 % 1015 hPa 0,0 l/m SW 14,4 km/h (3 Bft)
15.05.2005 15:00 13,0 C 72 % 1016 hPa 1,0 l/m W-SW 17,4 km/h (3 Bft)
15.05.2005 16:00 12,6 C 85 % 1016 hPa 0,0 l/m W-SW 9,8 km/h (2 Bft)
15.05.2005 17:00 14,4 C 74 % 1016 hPa 0,0 l/m NW 1,7 km/h (1 Bft)
15.05.2005 18:00 14,9 C 67 % 1015 hPa 0,0 l/m W 8,2 km/h (2 Bft)
15.05.2005 19:00 14,5 C 60 % 1015 hPa 0,0 l/m W-NW 8,3 km/h (2 Bft)
15.05.2005 20:00 12,4 C 71 % 1015 hPa 0,0 l/m N 0,2 km/h (0 Bft)
15.05.2005 21:00 9,9 C 82 % 1016 hPa 0,0 l/m N 0,2 km/h (0 Bft)
15.05.2005 22:00 8,5 C 87 % 1016 hPa 0,0 l/m N 0,0 km/h (0 Bft)
15.05.2005 23:00 7,8 C 90 % 1016 hPa 0,0 l/m W 2,6 km/h (1 Bft)
Min-Datum _ 11.05.05 11.05.05 09.05.05 - - 09.05.05
_ Min-Zeit 06:17 17:34 02:23 - - 00:04
Minimum _ -0,4 C 29 % 1011 hPa - - 0,0 km/h (0 Bft)
Max-Datum _ 13.05.05 11.05.05 11.05.05 15.05.05 - 15.05.05
_ Max-Zeit 17:46 07:14 09:28 07:56 - 11:22
Maximum _ 20,5 C 100 % 1021 hPa 1,0 l/m - 47,4 km/h
W-SW (6 Bft)
Durchschnitt _ 10,1 C 66 % 1016 hPa #2,0 l/m N-NO 9,7 km/h (2 Bft)

Durchschnitt Minimum Temp.9,5 C
Durchschnitt Maximum Temp.10,6 C